Weather at Igiugig Airport

Public forecast

Using degrees Fahrenheit for public forecast. Weather courtesy of forecast.io.

Current aviation weather report (METAR) for Igiugig Airport

Retrieved 2021/06/23 01:56 UTC (26 minutes ago):

PAIG 230156Z AUTO 05017G27KT CLR 14/08 RMK AO2 PK WND 05027/0149 SLPNO T01390083 PWINO

Closest aviation forecast (TAF) to Igiugig Airport

Closest forecast is Iliamna Airport, 39.7 nm (73.6 km) NE. Retrieved 2021-06-23 00:42 UTC (2 hours ago):

TAF PAIL 222340Z 2300/2324 10015G25KT P6SM OVC035 FM232000 08015G25KT P6SM -RA OVC050